createdAt,value
2019-03-10T00:00:33.309Z,103.77
2019-03-10T00:03:02.147Z,107.93
2019-03-10T00:05:31.110Z,101.03
2019-03-10T00:08:00.809Z,102.70
2019-03-10T00:10:29.648Z,97.77
2019-03-10T00:12:58.481Z,56.33
2019-03-10T00:15:27.648Z,73.70
2019-03-10T00:17:56.513Z,59.50
2019-03-10T00:20:25.355Z,104.47
2019-03-10T00:22:54.304Z,107.70
2019-03-10T00:25:23.127Z,96.13
2019-03-10T00:27:51.987Z,109.13
2019-03-10T00:30:20.876Z,98.67
2019-03-10T00:32:49.743Z,88.37
2019-03-10T00:35:18.593Z,93.83
2019-03-10T00:37:47.514Z,90.10
2019-03-10T00:40:51.438Z,89.07
2019-03-10T00:43:55.119Z,71.97
2019-03-10T00:46:49.425Z,63.00
2019-03-10T00:49:37.894Z,69.17
2019-03-10T00:52:21.781Z,57.63
2019-03-10T00:54:50.681Z,55.23
2019-03-10T00:57:20.530Z,44.37
2019-03-10T00:59:49.374Z,50.40
2019-03-10T01:02:18.284Z,44.47
2019-03-10T01:04:47.152Z,44.60
2019-03-10T01:07:16.100Z,48.80
2019-03-10T01:09:45.079Z,42.47
2019-03-10T01:12:14.009Z,34.17
2019-03-10T01:14:42.860Z,28.53
2019-03-10T01:17:11.967Z,27.40
2019-03-10T01:19:41.104Z,25.30
2019-03-10T01:22:10.813Z,27.73
2019-03-10T01:24:39.751Z,25.57
2019-03-10T01:27:08.610Z,30.73
2019-03-10T01:29:37.466Z,33.23
2019-03-10T01:32:33.213Z,31.57
2019-03-10T01:35:13.909Z,31.03
2019-03-10T01:37:42.769Z,29.13
2019-03-10T01:40:11.721Z,28.23
2019-03-10T01:42:40.546Z,28.00
2019-03-10T01:45:12.116Z,31.83
2019-03-10T01:47:40.947Z,35.50
2019-03-10T01:50:12.397Z,43.07
2019-03-10T01:52:41.272Z,43.60
2019-03-10T01:55:11.722Z,44.10
2019-03-10T01:57:40.562Z,52.50
2019-03-10T02:00:12.445Z,56.50
2019-03-10T02:02:41.282Z,63.00
2019-03-10T02:05:11.582Z,52.80
2019-03-10T02:07:40.470Z,40.93
2019-03-10T02:10:12.838Z,37.07
2019-03-10T02:12:41.768Z,36.03
2019-03-10T02:15:13.779Z,34.33
2019-03-10T02:17:42.610Z,34.13
2019-03-10T02:20:14.118Z,34.40
2019-03-10T02:22:43.030Z,35.73
2019-03-10T02:25:11.877Z,32.53
2019-03-10T02:27:40.713Z,30.63
2019-03-10T02:30:12.545Z,32.47
2019-03-10T02:32:41.410Z,30.27
2019-03-10T02:35:10.253Z,30.83
2019-03-10T02:37:39.145Z,30.40
2019-03-10T02:40:08.514Z,30.43
2019-03-10T02:42:37.372Z,31.20
2019-03-10T02:45:07.983Z,28.27
2019-03-10T02:47:36.840Z,29.40
2019-03-10T02:50:08.085Z,28.87
2019-03-10T02:52:37.007Z,28.37
2019-03-10T02:55:07.830Z,36.53
2019-03-10T02:57:36.672Z,37.87
2019-03-10T03:00:13.304Z,33.73
2019-03-10T03:02:42.126Z,36.03
2019-03-10T03:05:11.584Z,39.93
2019-03-10T03:07:40.472Z,44.27
2019-03-10T03:10:14.155Z,59.20
2019-03-10T03:12:42.998Z,48.53
2019-03-10T03:15:11.976Z,37.57
2019-03-10T03:17:40.823Z,33.57
2019-03-10T03:20:11.938Z,27.80
2019-03-10T03:22:40.860Z,29.87
2019-03-10T03:25:11.127Z,27.47
2019-03-10T03:27:39.956Z,28.33
2019-03-10T03:30:12.005Z,26.07
2019-03-10T03:32:40.851Z,27.40
2019-03-10T03:35:44.651Z,27.80
2019-03-10T03:38:13.505Z,28.87
2019-03-10T03:40:48.254Z,28.07
2019-03-10T03:43:17.076Z,27.53
2019-03-10T03:45:45.921Z,28.50
2019-03-10T03:48:14.813Z,27.73
2019-03-10T03:50:43.660Z,31.87
2019-03-10T03:53:12.512Z,55.30
2019-03-10T03:55:41.420Z,62.23
2019-03-10T03:58:10.265Z,43.03
2019-03-10T04:00:39.098Z,40.97
2019-03-10T04:03:08.018Z,28.90
2019-03-10T04:05:36.865Z,33.43
2019-03-10T04:08:05.703Z,31.97
2019-03-10T04:10:34.599Z,30.23
2019-03-10T04:13:03.444Z,29.63
2019-03-10T04:15:32.300Z,29.67
2019-03-10T04:18:01.225Z,30.50
2019-03-10T04:20:30.020Z,23.87
2019-03-10T04:22:58.860Z,23.00
2019-03-10T04:25:27.772Z,22.13
2019-03-10T04:27:57.489Z,22.60
2019-03-10T04:30:26.322Z,21.87
2019-03-10T04:32:55.202Z,22.70
2019-03-10T04:35:24.053Z,22.20
2019-03-10T04:37:52.891Z,23.33
2019-03-10T04:40:21.793Z,22.73
2019-03-10T04:42:50.642Z,22.33
2019-03-10T04:45:19.484Z,21.73
2019-03-10T04:47:48.395Z,24.50
2019-03-10T04:50:17.224Z,22.70
2019-03-10T04:52:46.065Z,23.00
2019-03-10T04:55:25.764Z,24.17
2019-03-10T04:57:59.181Z,30.27
2019-03-10T05:00:28.733Z,27.00
2019-03-10T05:02:57.652Z,24.17
2019-03-10T05:05:26.456Z,18.53
2019-03-10T05:07:55.251Z,17.27
2019-03-10T05:10:25.139Z,21.70
2019-03-10T05:12:54.206Z,20.93
2019-03-10T05:15:23.047Z,18.53
2019-03-10T05:17:51.938Z,20.00
2019-03-10T05:20:20.776Z,21.50
2019-03-10T05:22:49.606Z,25.67
2019-03-10T05:25:21.682Z,25.63
2019-03-10T05:27:50.625Z,20.90
2019-03-10T05:30:20.316Z,30.13
2019-03-10T05:32:49.216Z,27.30
2019-03-10T05:35:18.052Z,39.17
2019-03-10T05:37:46.882Z,39.80
2019-03-10T05:40:15.769Z,27.13
2019-03-10T05:42:44.603Z,24.57
2019-03-10T05:45:13.450Z,25.80
2019-03-10T05:47:42.362Z,25.27
2019-03-10T05:50:11.211Z,24.63
2019-03-10T05:52:40.076Z,26.27
2019-03-10T05:55:08.949Z,25.00
2019-03-10T05:57:37.757Z,24.17
2019-03-10T06:00:09.891Z,19.80
2019-03-10T06:02:38.854Z,25.23
2019-03-10T06:05:07.745Z,25.33
2019-03-10T06:07:36.537Z,29.70
2019-03-10T06:10:07.007Z,31.50
2019-03-10T06:12:35.870Z,31.20
2019-03-10T06:15:07.093Z,31.00
2019-03-10T06:17:35.992Z,29.27
2019-03-10T06:20:06.495Z,29.77
2019-03-10T06:22:35.317Z,27.23
2019-03-10T06:25:04.799Z,31.87
2019-03-10T06:27:33.639Z,32.73
2019-03-10T06:30:02.496Z,29.27
2019-03-10T06:32:31.406Z,30.53
2019-03-10T06:35:00.354Z,32.10
2019-03-10T06:37:29.214Z,33.47
2019-03-10T06:39:58.125Z,34.47
2019-03-10T06:42:26.952Z,35.93
2019-03-10T06:44:55.793Z,38.53
2019-03-10T06:47:24.689Z,39.60
2019-03-10T06:49:53.502Z,33.83
2019-03-10T06:52:22.392Z,37.43
2019-03-10T06:54:51.306Z,39.30
2019-03-10T06:57:20.129Z,36.43
2019-03-10T06:59:49.974Z,40.83
2019-03-10T07:02:19.181Z,45.43
2019-03-10T07:04:48.025Z,37.80
2019-03-10T07:07:16.871Z,36.23
2019-03-10T07:09:45.762Z,37.03
2019-03-10T07:12:14.606Z,35.80
2019-03-10T07:14:43.443Z,29.40
2019-03-10T07:17:12.350Z,34.87
2019-03-10T07:19:42.217Z,30.47
2019-03-10T07:22:12.575Z,26.67
2019-03-10T07:24:41.498Z,24.37
2019-03-10T07:27:10.360Z,23.13
2019-03-10T07:29:40.790Z,26.20
2019-03-10T07:32:20.226Z,23.40
2019-03-10T07:35:07.183Z,22.40
2019-03-10T07:37:52.914Z,24.27
2019-03-10T07:40:23.345Z,24.50
2019-03-10T07:42:53.783Z,23.40
2019-03-10T07:45:36.520Z,22.70
2019-03-10T07:48:15.767Z,20.43
2019-03-10T07:50:55.188Z,21.33
2019-03-10T07:53:41.722Z,24.57
2019-03-10T07:56:21.035Z,19.23
2019-03-10T07:58:54.432Z,22.40
2019-03-10T08:01:40.016Z,18.67
2019-03-10T08:04:13.359Z,21.43
2019-03-10T08:06:49.834Z,21.47
2019-03-10T08:09:20.257Z,22.87
2019-03-10T08:12:06.925Z,21.37
2019-03-10T08:14:37.356Z,22.87
2019-03-10T08:17:07.777Z,22.63
2019-03-10T08:19:47.740Z,21.13
2019-03-10T08:22:21.139Z,20.27
2019-03-10T08:24:51.613Z,21.03
2019-03-10T08:27:39.532Z,19.23
2019-03-10T08:30:11.200Z,19.83
2019-03-10T08:32:41.622Z,16.33
2019-03-10T08:35:12.074Z,14.00
2019-03-10T08:37:45.234Z,15.40
2019-03-10T08:40:18.372Z,11.60
2019-03-10T08:42:54.840Z,14.40
2019-03-10T08:45:31.238Z,8.83
2019-03-10T08:48:19.877Z,9.43
2019-03-10T08:50:53.093Z,8.60
2019-03-10T08:53:23.498Z,9.50
2019-03-10T08:56:08.998Z,8.90
2019-03-10T08:58:39.424Z,8.87
2019-03-10T09:01:24.699Z,9.77
2019-03-10T09:04:03.850Z,6.43
2019-03-10T09:06:48.005Z,4.27
2019-03-10T09:09:18.419Z,3.53
2019-03-10T09:11:48.848Z,3.60
2019-03-10T09:14:22.046Z,4.23
2019-03-10T09:16:52.460Z,5.00
2019-03-10T09:19:35.033Z,4.80
2019-03-10T09:22:05.451Z,4.13
2019-03-10T09:24:38.347Z,4.20
2019-03-10T09:27:28.402Z,3.52
2019-03-10T09:30:14.905Z,4.55
2019-03-10T09:33:00.467Z,4.55
2019-03-10T09:35:30.870Z,2.83
2019-03-10T09:38:11.664Z,3.77
2019-03-10T09:40:48.141Z,3.00
2019-03-10T09:43:18.610Z,3.20
2019-03-10T09:46:07.059Z,3.20
2019-03-10T09:48:47.750Z,3.02
2019-03-10T09:51:24.601Z,2.35
2019-03-10T09:54:11.188Z,2.40
2019-03-10T09:56:41.604Z,2.55
2019-03-10T09:59:28.107Z,2.72
2019-03-10T10:01:58.524Z,3.15
2019-03-10T10:04:45.751Z,2.67
2019-03-10T10:07:16.176Z,3.90
2019-03-10T10:09:49.571Z,3.80
2019-03-10T10:12:20.047Z,3.98
2019-03-10T10:14:56.331Z,2.77
2019-03-10T10:17:41.895Z,3.00
2019-03-10T10:20:21.758Z,2.75
2019-03-10T10:23:08.394Z,2.47
2019-03-10T10:25:38.801Z,3.72
2019-03-10T10:28:13.659Z,3.57
2019-03-10T10:30:54.801Z,3.90
2019-03-10T10:33:38.860Z,3.70
2019-03-10T10:36:12.137Z,4.17
2019-03-10T10:38:42.665Z,2.90
2019-03-10T10:41:17.290Z,4.07
2019-03-10T10:44:06.149Z,4.30
2019-03-10T10:46:39.442Z,3.73
2019-03-10T10:49:10.213Z,4.00
2019-03-10T10:51:43.676Z,3.87
2019-03-10T10:54:14.216Z,2.80
2019-03-10T10:56:57.023Z,7.60
2019-03-10T10:59:33.387Z,3.00
2019-03-10T11:02:13.029Z,3.03
2019-03-10T11:04:52.464Z,3.90
2019-03-10T11:07:25.452Z,2.67
2019-03-10T11:09:58.956Z,3.63
2019-03-10T11:12:29.483Z,2.70
2019-03-10T11:15:00.334Z,2.70
2019-03-10T11:17:49.349Z,2.17
2019-03-10T11:20:19.907Z,2.80
2019-03-10T11:23:08.171Z,2.73
2019-03-10T11:25:38.586Z,4.07
2019-03-10T11:28:09.005Z,3.13
2019-03-10T11:30:54.609Z,3.80
2019-03-10T11:33:27.401Z,3.87
2019-03-10T11:36:13.338Z,4.70
2019-03-10T11:38:43.791Z,3.47
2019-03-10T11:41:33.673Z,4.37
2019-03-10T11:44:04.131Z,2.97
2019-03-10T11:46:34.572Z,3.70
2019-03-10T11:49:04.991Z,3.90
2019-03-10T11:51:41.036Z,3.60
2019-03-10T11:54:14.242Z,3.90
2019-03-10T11:56:44.693Z,2.90
2019-03-10T11:59:27.013Z,3.30
2019-03-10T12:02:00.221Z,4.17
2019-03-10T12:04:30.653Z,4.00
2019-03-10T12:07:01.060Z,4.40
2019-03-10T12:09:29.977Z,4.07
2019-03-10T12:11:58.814Z,4.23
2019-03-10T12:14:27.652Z,4.33
2019-03-10T12:16:56.545Z,4.80
2019-03-10T12:19:25.365Z,4.40
2019-03-10T12:21:56.011Z,4.67
2019-03-10T12:24:24.760Z,4.10
2019-03-10T12:26:53.608Z,3.20
2019-03-10T12:29:22.400Z,3.53
2019-03-10T12:31:51.282Z,4.50
2019-03-10T12:34:20.111Z,4.80
2019-03-10T12:36:49.060Z,5.33
2019-03-10T12:39:18.153Z,5.10
2019-03-10T12:41:57.612Z,4.90
2019-03-10T12:44:17.499Z,4.90
2019-03-10T12:46:46.393Z,4.93
2019-03-10T12:49:15.242Z,3.90
2019-03-10T12:51:44.087Z,6.23
2019-03-10T12:54:12.992Z,4.20
2019-03-10T12:56:41.813Z,5.20
2019-03-10T12:59:10.650Z,4.83
2019-03-10T13:01:39.535Z,5.00
2019-03-10T13:04:08.369Z,4.80
2019-03-10T13:06:37.218Z,5.20
2019-03-10T13:09:08.010Z,4.77
2019-03-10T13:11:36.869Z,5.83
2019-03-10T13:14:05.700Z,4.67
2019-03-10T13:16:34.630Z,4.83
2019-03-10T13:19:03.458Z,3.90
2019-03-10T13:21:32.274Z,4.47
2019-03-10T13:24:02.119Z,5.03
2019-03-10T13:26:30.954Z,3.53
2019-03-10T13:28:59.790Z,5.30
2019-03-10T13:31:28.687Z,20.00
2019-03-10T13:33:57.509Z,3.80
2019-03-10T13:36:26.336Z,4.00
2019-03-10T13:38:55.254Z,5.30
2019-03-10T13:41:24.101Z,4.93
2019-03-10T13:43:52.934Z,6.40
2019-03-10T13:46:21.898Z,4.60
2019-03-10T13:48:50.753Z,6.03
2019-03-10T13:51:19.606Z,4.33
2019-03-10T13:53:48.473Z,3.90
2019-03-10T13:56:17.313Z,4.67
2019-03-10T13:58:46.174Z,5.50
2019-03-10T14:01:15.170Z,4.80
2019-03-10T14:03:43.990Z,5.03
2019-03-10T14:06:12.835Z,5.63
2019-03-10T14:08:41.729Z,8.37
2019-03-10T14:11:10.575Z,6.80
2019-03-10T14:13:39.382Z,4.77
2019-03-10T14:16:08.314Z,4.20
2019-03-10T14:18:37.166Z,4.87
2019-03-10T14:21:06.003Z,4.50
2019-03-10T14:23:34.905Z,6.10
2019-03-10T14:26:03.762Z,6.20
2019-03-10T14:28:32.607Z,12.50
2019-03-10T14:31:01.590Z,8.40
2019-03-10T14:33:30.431Z,14.17
2019-03-10T14:35:59.280Z,6.30
2019-03-10T14:38:28.169Z,6.40
2019-03-10T14:40:56.998Z,8.20
2019-03-10T14:43:25.834Z,6.20
2019-03-10T14:45:54.777Z,7.40
2019-03-10T14:48:23.639Z,5.70
2019-03-10T14:50:52.479Z,6.83
2019-03-10T14:53:21.369Z,5.20
2019-03-10T14:55:50.218Z,6.13
2019-03-10T14:58:19.044Z,8.00
2019-03-10T15:00:47.949Z,10.37
2019-03-10T15:03:16.798Z,6.67
2019-03-10T15:05:45.637Z,7.47
2019-03-10T15:08:14.533Z,7.80
2019-03-10T15:10:43.416Z,5.70
2019-03-10T15:13:12.253Z,7.43
2019-03-10T15:15:41.147Z,7.83
2019-03-10T15:18:09.988Z,6.17
2019-03-10T15:20:39.156Z,7.23
2019-03-10T15:23:08.081Z,5.70
2019-03-10T15:25:36.959Z,6.10
2019-03-10T15:28:05.762Z,4.47
2019-03-10T15:30:34.686Z,5.17
2019-03-10T15:33:03.540Z,5.00
2019-03-10T15:35:32.375Z,4.80
2019-03-10T15:38:01.254Z,5.67
2019-03-10T15:40:30.091Z,4.90
2019-03-10T15:42:58.925Z,14.13
2019-03-10T15:45:28.152Z,15.97
2019-03-10T15:47:57.062Z,5.10
2019-03-10T15:50:28.872Z,5.17
2019-03-10T15:52:57.848Z,34.10
2019-03-10T15:55:26.678Z,7.03
2019-03-10T15:57:55.484Z,6.17
2019-03-10T16:00:25.479Z,5.10
2019-03-10T16:02:54.522Z,7.40
2019-03-10T16:05:23.437Z,11.63
2019-03-10T16:07:52.433Z,11.53
2019-03-10T16:10:21.424Z,8.10
2019-03-10T16:12:50.288Z,7.87
2019-03-10T16:15:24.298Z,30.27
2019-03-10T16:17:53.172Z,18.90
2019-03-10T16:20:22.026Z,7.50
2019-03-10T16:22:50.904Z,8.70
2019-03-10T16:25:19.865Z,8.40
2019-03-10T16:27:49.913Z,6.17
2019-03-10T16:30:21.259Z,6.60
2019-03-10T16:32:50.167Z,7.10
2019-03-10T16:35:19.009Z,7.23
2019-03-10T16:37:47.933Z,8.93
2019-03-10T16:40:17.950Z,10.43
2019-03-10T16:42:46.894Z,12.77
2019-03-10T16:45:23.771Z,17.50
2019-03-10T16:47:52.625Z,18.37
2019-03-10T16:50:27.299Z,12.20
2019-03-10T16:52:56.231Z,13.10
2019-03-10T16:55:25.090Z,16.00
2019-03-10T16:57:54.068Z,19.07
2019-03-10T17:00:22.970Z,13.33
2019-03-10T17:02:52.234Z,12.73
2019-03-10T17:05:23.203Z,16.77
2019-03-10T17:07:52.255Z,19.80
2019-03-10T17:10:27.477Z,38.23
2019-03-10T17:12:56.408Z,44.23
2019-03-10T17:15:26.083Z,13.47
2019-03-10T17:17:55.139Z,45.10
2019-03-10T17:20:24.040Z,32.23
2019-03-10T17:22:53.178Z,26.00
2019-03-10T17:25:22.046Z,22.97
2019-03-10T17:27:50.946Z,20.00
2019-03-10T17:30:25.121Z,12.27
2019-03-10T17:32:53.974Z,12.27
2019-03-10T17:35:23.039Z,15.77
2019-03-10T17:37:51.902Z,10.53
2019-03-10T17:40:25.517Z,10.23
2019-03-10T17:42:54.765Z,12.97
2019-03-10T17:45:24.574Z,13.33
2019-03-10T17:47:53.434Z,12.77
2019-03-10T17:50:22.444Z,8.43
2019-03-10T17:52:51.414Z,12.17
2019-03-10T17:55:22.255Z,9.50
2019-03-10T17:57:51.484Z,7.57
2019-03-10T18:00:22.992Z,7.50
2019-03-10T18:02:51.872Z,8.77
2019-03-10T18:05:20.759Z,10.60
2019-03-10T18:07:49.609Z,9.47
2019-03-10T18:10:18.881Z,8.53
2019-03-10T18:12:47.778Z,10.60
2019-03-10T18:15:17.819Z,11.23
2019-03-10T18:17:47.009Z,8.40
2019-03-10T18:20:21.064Z,8.20
2019-03-10T18:22:49.947Z,7.73
2019-03-10T18:25:18.887Z,9.10
2019-03-10T18:27:47.933Z,7.47
2019-03-10T18:30:20.682Z,11.10
2019-03-10T18:32:49.544Z,11.50
2019-03-10T18:35:18.475Z,9.17
2019-03-10T18:37:47.389Z,10.30
2019-03-10T18:40:19.168Z,7.90
2019-03-10T18:42:48.270Z,7.13
2019-03-10T18:45:18.405Z,10.07
2019-03-10T18:47:47.384Z,10.97
2019-03-10T18:50:21.274Z,7.93
2019-03-10T18:52:50.138Z,7.23
2019-03-10T18:55:19.689Z,8.50
2019-03-10T18:57:48.613Z,10.13
2019-03-10T19:00:32.017Z,9.80
2019-03-10T19:03:00.918Z,8.60
2019-03-10T19:05:29.837Z,9.83
2019-03-10T19:07:58.688Z,14.23
2019-03-10T19:10:27.629Z,31.37
2019-03-10T19:12:56.527Z,25.03
2019-03-10T19:15:26.790Z,16.83
2019-03-10T19:17:55.944Z,12.90
2019-03-10T19:20:24.824Z,29.47
2019-03-10T19:22:53.682Z,38.50
2019-03-10T19:25:22.585Z,42.23
2019-03-10T19:27:51.449Z,41.03
2019-03-10T19:30:23.912Z,32.47
2019-03-10T19:32:52.832Z,23.77
2019-03-10T19:35:21.683Z,15.83
2019-03-10T19:37:50.656Z,14.83
2019-03-10T19:40:21.672Z,15.23
2019-03-10T19:42:50.535Z,22.33
2019-03-10T19:45:20.407Z,24.93
2019-03-10T19:47:49.311Z,30.40
2019-03-10T19:50:20.368Z,23.57
2019-03-10T19:52:49.218Z,44.33
2019-03-10T19:55:18.109Z,43.40
2019-03-10T19:57:46.973Z,23.10
2019-03-10T20:00:17.888Z,41.30
2019-03-10T20:02:47.071Z,50.87
2019-03-10T20:05:16.340Z,33.38
2019-03-10T20:07:45.588Z,50.70
2019-03-10T20:10:16.085Z,21.60
2019-03-10T20:12:44.945Z,17.80
2019-03-10T20:15:16.395Z,28.57
2019-03-10T20:17:45.287Z,17.00
2019-03-10T20:20:15.928Z,28.73
2019-03-10T20:22:44.917Z,43.07
2019-03-10T20:25:15.445Z,60.10
2019-03-10T20:27:44.588Z,35.27
2019-03-10T20:30:25.386Z,34.67
2019-03-10T20:32:54.330Z,39.17
2019-03-10T20:35:23.197Z,26.53
2019-03-10T20:37:52.093Z,20.73
2019-03-10T20:40:23.120Z,34.33
2019-03-10T20:42:51.993Z,30.37
2019-03-10T20:45:20.922Z,23.43
2019-03-10T20:47:49.795Z,27.20
2019-03-10T20:50:20.735Z,29.97
2019-03-10T20:52:49.638Z,39.27
2019-03-10T20:55:18.486Z,29.60
2019-03-10T20:57:54.003Z,42.53
2019-03-10T21:00:25.151Z,43.37
2019-03-10T21:02:54.004Z,42.87
2019-03-10T21:05:22.860Z,53.33
2019-03-10T21:07:51.863Z,44.40
2019-03-10T21:10:23.009Z,40.10
2019-03-10T21:12:51.863Z,53.10
2019-03-10T21:15:22.752Z,50.50
2019-03-10T21:17:51.899Z,40.20
2019-03-10T21:20:22.025Z,21.83
2019-03-10T21:22:50.947Z,16.10
2019-03-10T21:25:30.649Z,11.37
2019-03-10T21:27:59.642Z,19.03
2019-03-10T21:30:33.486Z,16.27
2019-03-10T21:33:02.331Z,8.80
2019-03-10T21:35:33.216Z,9.57
2019-03-10T21:38:02.144Z,13.10
2019-03-10T21:40:35.755Z,9.57
2019-03-10T21:43:04.707Z,8.67
2019-03-10T21:45:33.959Z,9.87
2019-03-10T21:48:02.968Z,9.50
2019-03-10T21:50:31.822Z,8.13
2019-03-10T21:53:00.681Z,6.47
2019-03-10T21:55:29.594Z,8.50
2019-03-10T21:57:58.552Z,7.90
2019-03-10T22:00:27.449Z,7.47
2019-03-10T22:02:56.366Z,7.07
2019-03-10T22:05:26.027Z,8.00
2019-03-10T22:07:55.012Z,6.93
2019-03-10T22:10:27.532Z,7.73
2019-03-10T22:12:54.552Z,7.73
2019-03-10T22:15:23.381Z,7.23
2019-03-10T22:17:52.278Z,8.53
2019-03-10T22:20:21.445Z,7.67
2019-03-10T22:22:50.371Z,6.27
2019-03-10T22:25:19.441Z,7.77
2019-03-10T22:27:48.287Z,7.20
2019-03-10T22:30:22.560Z,8.37
2019-03-10T22:32:51.588Z,7.80
2019-03-10T22:35:20.444Z,8.33
2019-03-10T22:37:49.345Z,9.57
2019-03-10T22:40:18.986Z,8.77
2019-03-10T22:42:47.836Z,9.50
2019-03-10T22:45:18.646Z,9.80
2019-03-10T22:47:47.499Z,12.73
2019-03-10T22:50:16.922Z,11.67
2019-03-10T22:52:46.064Z,13.40
2019-03-10T22:55:15.975Z,16.33
2019-03-10T22:57:44.931Z,18.27
2019-03-10T23:00:22.496Z,19.97
2019-03-10T23:02:51.337Z,21.77
2019-03-10T23:05:20.188Z,23.60
2019-03-10T23:07:49.908Z,28.83
2019-03-10T23:10:18.757Z,30.53
2019-03-10T23:12:47.599Z,32.83
2019-03-10T23:15:16.486Z,30.37
2019-03-10T23:17:45.351Z,28.60
2019-03-10T23:20:15.502Z,31.00
2019-03-10T23:22:44.441Z,32.77
2019-03-10T23:25:13.503Z,37.17
2019-03-10T23:27:42.669Z,33.93
2019-03-10T23:30:14.331Z,32.83
2019-03-10T23:32:43.169Z,31.20
2019-03-10T23:35:12.144Z,28.93
2019-03-10T23:37:41.157Z,30.30
2019-03-10T23:40:17.494Z,31.43
2019-03-10T23:42:46.432Z,29.67
2019-03-10T23:45:18.972Z,33.33
2019-03-10T23:47:47.928Z,29.03
2019-03-10T23:50:18.531Z,28.33
2019-03-10T23:52:47.369Z,25.73
2019-03-10T23:55:16.433Z,25.90
2019-03-10T23:57:45.330Z,27.30
